METAR Data
IDs: Format: Raw Decoded Include TAF

Data at: 0410 UTC 27 Jan 2021

EPSY 270400Z 28008KT 240V330 9999 -SN OVC015 M00/M03 Q1005